Latest Coastal Weather Observations for Albion Park

IDN60701

Issued at 9:02 am EST Sunday 26 June 2016 (issued every 10 minutes, with the page automatically refreshed every 10 minutes)

About coastal observations | Map of coastal stations | Coastal observations for NSW | Marine services | Other Formats
Station Details ID: 068241 Name: WOLLONGONG AIRPORT Lat: -34.56 Lon: 150.79 Height: 8.0 m
Data from the previous 72 hours. | See also: Recent months at Albion Park
Date/Time
EST
Temp
°C
Wind Pressure Rain since
9am
mm
Weather Cloud Vis
km
Sea
Height
m
Swell
Dir  Spd
kts
Gust
kts
hPa Trend Height
m
Period
s
Dir
26/09:00am 11.5 WSW 2 4 1020.5 - 0.0 - Mostly clear 10 - - - -
26/08:30am 10.3 WSW 3 5 1020.4 - 0.0 - Partly cloudy 10 - - - -
26/08:00am 8.8 CALM 0 0 1020.6 - 0.0 - Partly cloudy 10 - - - -
26/07:30am 7.3 WSW 3 6 1020.5 - 0.0 - Partly cloudy 10 - - - -
26/07:00am 8.3 WSW 7 8 1020.3 - 0.0 - Cloudy 10 - - - -
26/06:30am 8.4 WSW 5 8 1020.1 - 0.0 - Cloudy 10 - - - -
26/06:00am 6.6 WSW 5 8 1019.6 - 0.0 - Partly cloudy 10 - - - -
26/05:30am 7.7 WSW 5 6 1019.6 - 0.0 - - 10 - - - -
26/05:00am 8.4 WSW 9 14 1019.3 - 0.0 - - 10 - - - -
26/04:30am 8.2 SW 8 11 1019.2 - 0.0 - - 10 - - - -
26/04:00am 8.3 WSW 9 11 1018.9 - 0.0 - Partly cloudy 10 - - - -
26/03:30am 9.0 WSW 11 15 1019.1 - 0.0 - Cloudy 10 - - - -
26/03:00am 9.1 WSW 12 15 1019.4 - 0.0 - Cloudy 10 - - - -
26/02:30am 9.0 WSW 12 15 1019.5 - 0.0 - Cloudy 10 - - - -
26/02:00am 9.1 WSW 12 15 1019.9 - 0.0 - Cloudy 10 - - - -
26/01:30am 8.7 W 10 14 1020.3 - 0.0 - Cloudy 10 - - - -
26/01:00am 7.6 W 15 20 1020.0 - 0.0 - Partly cloudy 10 - - - -
26/12:30am 6.9 W 15 18 1020.4 - 0.0 - - 10 - - - -
26/12:00am 6.0 W 11 13 1020.5 - 0.0 - - 10 - - - -
 
Date/Time
EST
Temp
°C
Wind Pressure Rain since
9am
mm
Weather Cloud Vis
km
Sea
Height
m
Swell
Dir  Spd
kts
Gust
kts
hPa Trend Height
m
Period
s
Dir
25/11:30pm 6.0 W 9 11 1020.8 - 0.0 - - 10 - - - -
25/11:00pm 7.1 WSW 9 11 1020.6 - 0.0 - - 10 - - - -
25/10:30pm 7.5 WSW 12 16 1020.5 - 0.0 - - 10 - - - -
25/10:00pm 7.4 WSW 11 14 1020.5 - 0.0 - - 10 - - - -
25/09:30pm 7.5 WSW 11 14 1020.5 - 0.0 - - 10 - - - -
25/09:00pm 7.3 W 11 13 1020.4 - 0.0 - - 10 - - - -
25/08:30pm 8.0 W 13 16 1020.3 - 0.0 - - 10 - - - -
25/08:00pm 8.3 W 13 15 1020.2 - 0.0 - - 10 - - - -
25/07:30pm 8.2 W 11 14 1020.1 - 0.0 - - 10 - - - -
25/07:00pm 6.8 SW 4 6 1020.3 - 0.0 - - 10 - - - -
25/06:30pm 6.4 SW 4 7 1020.0 - 0.0 - - 10 - - - -
25/06:00pm 7.1 WSW 3 4 1019.7 - 0.0 - - 10 - - - -
25/05:30pm 7.2 WSW 4 6 1019.4 - 0.0 - - 10 - - - -
25/05:00pm 8.7 WNW 7 8 1019.0 - 0.0 - - 10 - - - -
25/04:30pm 11.7 WSW 6 7 1018.7 - 0.0 - - 10 - - - -
25/04:00pm 13.2 W 9 12 1018.5 - 0.0 - - 10 - - - -
25/03:30pm 13.8 W 9 13 1018.3 - 0.0 - - 10 - - - -
25/03:00pm 13.8 W 11 14 1018.2 - 0.0 - - 10 - - - -
25/02:30pm 14.3 WSW 9 14 1018.0 - 0.0 - - 10 - - - -
25/02:00pm 14.0 WSW 11 14 1017.8 - 0.0 - - 10 - - - -
25/01:30pm 13.9 SSW 11 18 1017.7 - 0.0 - - 10 - - - -
25/01:00pm 13.8 SSW 13 20 1017.9 - 0.0 - - 10 - - - -
25/12:30pm 13.2 SW 12 16 1017.9 - 0.0 - - 10 - - - -
25/12:00pm 13.0 SW 13 19 1018.0 - 0.0 - - 10 - - - -
25/11:30am 12.7 SSW 13 24 1018.3 - 0.0 - - 10 - - - -
25/11:00am 12.1 SW 13 19 1018.5 - 0.0 - - 10 - - - -
25/10:30am 11.9 SW 13 20 1018.6 - 0.0 - - 10 - - - -
25/10:00am 11.0 WSW 14 19 1018.5 - 0.0 - - 10 - - - -
25/09:30am 10.5 WSW 15 24 1018.1 - 0.0 - - 10 - - - -
25/09:00am 9.5 WSW 15 20 1017.7 - 0.0 - - 10 - - - -
25/08:30am 8.5 WSW 16 21 1017.4 - 0.0 - - 10 - - - -
25/08:00am 7.3 WSW 16 21 1017.3 - 0.0 - - 10 - - - -
25/07:30am 6.7 WSW 16 20 1017.2 - 0.0 - - 10 - - - -
25/07:00am 6.4 W 15 18 1016.7 - 0.0 - - 10 - - - -
25/06:30am 6.6 W 13 19 1016.3 - 0.0 - - 10 - - - -
25/06:00am 6.8 W 14 19 1015.9 - 0.0 - - 10 - - - -
25/05:30am 7.2 W 12 17 1015.7 - 0.0 - - 10 - - - -
25/05:00am 7.2 W 15 22 1015.2 - 0.0 - - 10 - - - -
25/04:30am 7.3 W 17 25 1014.4 - 0.0 - - 10 - - - -
25/04:00am 7.6 WSW 19 28 1013.7 - 0.0 - - 10 - - - -
25/03:30am 7.6 WSW 23 33 1013.3 - 0.0 - - 10 - - - -
25/03:21am 7.8 WSW 22 32 1013.1 - 0.0 - - 10 - - - -
25/03:00am 7.8 WSW 23 29 1012.8 - 0.0 - - 10 - - - -
25/02:30am 7.9 WSW 23 35 1012.4 - 0.0 - - 10 - - - -
25/02:27am 7.8 WSW 23 35 1012.2 - 0.0 - - 10 - - - -
25/02:00am 7.9 WSW 24 30 1012.1 - 0.0 - - 10 - - - -
25/01:30am 8.2 WSW 23 35 1011.9 - 0.0 - - 10 - - - -
25/01:08am 8.2 WSW 24 34 1011.6 - 0.0 - - 10 - - - -
25/01:00am 8.4 WSW 25 33 1011.3 - 0.0 - - 10 - - - -
25/12:30am 8.6 WSW 23 33 1011.2 - 0.0 - - 10 - - - -
25/12:05am 8.5 W 15 28 1011.0 - 0.0 - - 10 - - - -
25/12:00am 8.5 W 12 21 1011.0 - 0.0 - - 10 - - - -
 
Date/Time
EST
Temp
°C
Wind Pressure Rain since
9am
mm
Weather Cloud Vis
km
Sea
Height
m
Swell
Dir  Spd
kts
Gust
kts
hPa Trend Height
m
Period
s
Dir
24/11:31pm 8.8 WSW 15 25 1011.2 - 0.0 - - 10 - - - -
24/11:30pm 8.9 WSW 16 25 1011.1 - 0.0 - - 10 - - - -
24/11:01pm 9.3 WSW 22 32 1010.1 - 0.0 - - 10 - - - -
24/11:00pm 9.2 WSW 22 31 1010.1 - 0.0 - - 10 - - - -
24/10:41pm 9.2 W 15 30 1010.1 - 0.0 - - 10 - - - -
24/10:30pm 9.2 W 12 21 1010.4 - 0.0 - - 10 - - - -
24/10:00pm 9.4 WNW 14 21 1010.1 - 0.0 - - 10 - - - -
24/09:30pm 9.3 WNW 13 21 1009.9 - 0.0 - - 10 - - - -
24/09:15pm 9.6 W 15 28 1009.4 - 0.0 - - 10 - - - -
24/09:00pm 9.7 WNW 16 24 1009.2 - 0.0 - - 10 - - - -
24/08:36pm 9.5 WNW 15 26 1009.2 - 0.0 - - 10 - - - -
24/08:30pm 9.5 WNW 15 24 1009.0 - 0.0 - - 10 - - - -
24/08:00pm 9.5 WNW 13 22 1008.8 - 0.0 - Partly cloudy 10 - - - -
24/07:30pm 10.0 WNW 12 19 1007.4 - 0.0 - - 10 - - - -
24/07:00pm 10.0 W 11 16 1006.8 - 0.0 - - 10 - - - -
24/06:30pm 9.9 W 15 25 1006.2 - 0.0 - - 10 - - - -
24/06:05pm 10.0 W 15 29 1005.9 - 0.0 - Partly cloudy 10 - - - -
24/06:00pm 10.0 WNW 11 21 1005.9 - 0.0 - Cloudy 10 - - - -
24/05:36pm 10.4 WNW 9 27 1006.0 - 0.0 - Partly cloudy 10 - - - -
24/05:30pm 10.7 NW 6 11 1005.9 - 0.0 - Partly cloudy 10 - - - -
24/05:00pm 11.0 SSW 8 13 1005.6 - 0.0 - Partly cloudy 10 - - - -
24/04:30pm 11.4 W 15 25 1004.6 - 0.0 - Partly cloudy 10 - - - -
24/04:00pm 12.4 W 10 17 1003.7 - 0.0 - - 10 - - - -
24/03:33pm 13.2 W 18 28 1003.1 - 0.0 - - 10 - - - -
24/03:30pm 13.4 W 20 28 1002.9 - 0.0 - - 10 - - - -
24/03:00pm 13.6 W 25 40 1002.2 - 0.0 - - 10 - - - -
24/02:41pm 14.0 W 23 36 1002.2 - 0.0 - - 10 - - - -
24/02:39pm 14.1 W 22 36 1002.1 - 0.0 - - 10 - - - -
24/02:30pm 14.6 W 15 25 1002.1 - 0.0 - Partly cloudy 10 - - - -
24/02:03pm 14.1 W 15 30 1002.2 - 0.0 - Partly cloudy 10 - - - -
24/02:00pm 14.3 W 14 22 1002.3 - 0.0 - Partly cloudy 10 - - - -
24/01:30pm 14.5 W 20 32 1002.3 - 0.0 - Partly cloudy 10 - - - -
24/01:00pm 14.3 W 20 31 1002.3 - 0.0 - Partly cloudy 10 - - - -
24/12:34pm 15.0 W 22 32 1002.7 - 0.0 - Partly cloudy 10 - - - -
24/12:30pm 14.3 W 24 32 1002.6 - 0.0 - Partly cloudy 10 - - - -
24/12:24pm 14.9 W 21 31 1002.5 - 0.0 - Partly cloudy 10 - - - -
24/12:00pm 14.8 W 19 28 1002.6 - 0.0 - Partly cloudy 10 - - - -
24/11:30am 14.7 WSW 19 30 1002.9 - 0.0 - Partly cloudy 10 - - - -
24/11:26am 15.0 W 15 26 1003.0 - 0.0 - Partly cloudy 10 - - - -
24/11:00am 15.3 W 8 12 1003.0 - 0.0 - Partly cloudy 10 - - - -
24/10:30am 14.6 WSW 19 30 1003.0 - 0.0 - Partly cloudy 10 - - - -
24/10:09am 14.5 W 16 27 1003.2 - 0.0 - Partly cloudy 10 - - - -
24/10:00am 14.6 W 17 25 1003.2 - 0.0 - Partly cloudy 10 - - - -
24/09:30am 14.4 SSW 5 16 1003.1 - 0.0 - Partly cloudy 10 - - - -
24/09:00am 13.5 W 6 11 1003.0 - 0.0 - Mostly clear 10 - - - -
24/08:30am 12.5 E 5 9 1002.8 - 0.0 - Partly cloudy 10 - - - -
24/08:00am 12.9 W 4 8 1002.5 - 0.0 - Partly cloudy 10 - - - -
24/07:30am 12.7 SE 6 25 1001.9 - 0.0 - - 10 - - - -
24/07:00am 12.6 WNW 7 13 1001.7 - 0.0 - - 10 - - - -
24/06:30am 13.0 WNW 10 22 1001.5 - 0.0 - Partly cloudy 10 - - - -
24/06:00am 13.4 W 5 11 1001.3 - 0.0 - Mostly cloudy 10 - - - -
24/05:30am 9.5 WSW 3 7 1001.1 - 0.0 - - 10 - - - -
24/05:16am 12.5 NNE 5 15 1000.9 - 0.0 - - 10 - - - -
24/05:00am 7.1 SE 4 5 1000.7 - 0.0 - - 10 - - - -
24/04:30am 8.4 SW 2 6 1000.8 - 0.0 - Partly cloudy 10 - - - -
24/04:00am 9.5 ENE 4 6 1001.0 - 0.0 - - 10 - - - -
24/03:30am 8.7 SW 1 7 1001.4 - 0.0 - - 10 - - - -
24/03:00am 7.3 W 3 10 1001.7 - 0.0 - Mostly clear 10 - - - -
24/02:30am 8.1 WNW 3 6 1001.9 - 0.0 - Partly cloudy 10 - - - -
24/02:00am 9.0 W 2 5 1002.0 - 0.0 - Partly cloudy 10 - - - -
24/01:30am 11.4 NE 7 9 1001.9 - 0.0 - Partly cloudy 10 - - - -
24/01:00am 9.5 W 1 4 1002.5 - 0.0 - Partly cloudy 10 - - - -
24/12:30am 8.5 WNW 3 5 1002.7 - 0.0 - Cloudy 10 - - - -
24/12:00am 10.0 NNW 4 5 1003.3 - 0.0 - Partly cloudy 10 - - - -
 
Date/Time
EST
Temp
°C
Wind Pressure Rain since
9am
mm
Weather Cloud Vis
km
Sea
Height
m
Swell
Dir  Spd
kts
Gust
kts
hPa Trend Height
m
Period
s
Dir
23/11:30pm 9.6 WNW 7 8 1003.9 - 0.0 - Cloudy 10 - - - -
23/11:00pm 8.1 WNW 9 10 1003.8 - 0.0 - Partly cloudy 10 - - - -
23/10:30pm 6.8 WNW 7 9 1004.0 - 0.0 - - 10 - - - -
23/10:00pm 6.6 W 6 9 1004.3 - 0.0 - - 10 - - - -
23/09:30pm 5.5 SW 4 5 1004.7 - 0.0 - - 10 - - - -
23/09:00pm 6.6 CALM 0 0 1004.8 - 0.0 - - 10 - - - -
23/08:30pm 6.4 W 5 7 1005.0 - 0.0 - - 10 - - - -
23/08:00pm 7.1 W 2 5 1005.2 - 0.0 - - 10 - - - -
23/07:30pm 7.8 W 2 4 1005.4 - 0.0 - - 10 - - - -
23/07:00pm 8.2 WNW 5 7 1005.7 - 0.0 - Partly cloudy 10 - - - -
23/06:30pm 8.7 W 1 3 1005.8 - 0.0 - - 10 - - - -
23/06:00pm 9.9 NW 4 5 1005.9 - 0.0 - - 10 - - - -
23/05:30pm 12.6 N 4 5 1005.7 - 0.0 - - 10 - - - -
23/05:00pm 14.3 NW 5 9 1005.6 - 0.0 - - 10 - - - -
23/04:30pm 16.0 NW 6 8 1005.5 - 0.0 - - 10 - - - -
23/04:00pm 16.8 NW 6 8 1005.7 - 0.0 - - 10 - - - -
23/03:30pm 17.7 NW 8 12 1005.9 - 0.0 - - 10 - - - -
23/03:00pm 17.5 NW 7 9 1006.2 - 0.0 - - 10 - - - -
23/02:36pm 17.7 WNW 15 25 1006.5 - 0.0 - - 10 - - - -
23/02:30pm 17.7 NW 12 19 1006.6 - 0.0 - - 10 - - - -
23/02:00pm 17.6 NNW 12 21 1006.9 - 0.0 - - 10 - - - -
23/01:30pm 17.0 NW 9 11 1007.4 - 0.0 - - 10 - - - -
23/01:00pm 16.5 NW 11 16 1008.0 - 0.0 - - 10 - - - -
23/12:30pm 16.8 NW 10 15 1008.7 - 0.0 - - 10 - - - -
23/12:00pm 16.2 WNW 10 21 1009.3 - 0.0 - Mostly cloudy 10 - - - -
23/11:30am 16.1 NNW 9 14 1009.9 - 0.0 - - 10 - - - -
23/11:00am 15.3 WNW 7 11 1010.6 - 0.0 - - 10 - - - -
23/10:30am 14.7 NNE 5 6 1011.0 - 0.0 - - 10 - - - -
23/10:00am 14.3 N 6 9 1011.6 - 0.0 - - 10 - - - -
23/09:30am 13.3 NNE 6 9 1011.4 - 0.0 - - 10 - - - -

Other Formats:

Comma delimited format used in spreadsheet applications
http://www.bom.gov.au/fwo/IDN60701/IDN60701.95748.axf

JavaScript Object Notation format (JSON) in row-major order
http://www.bom.gov.au/fwo/IDN60701/IDN60701.95748.json